Bonanza, Utah
Current Conditions -  °F | °C
As of 6:53 AM on Thursday 23 Oct 2014 (Local Time) from KVEL Reporting Station
Clear Clear  
Wind Chill: 37°   Ceiling: Unl
Heat Index: 37°   Visibility: 10mi
Dew Point: 31°   Wind: 3mph
Humidity: 79%   Direction: 290°WNW
Pressure: 30.24"   Gusts: NA
Location:  40.02°N, 109.18°W
Report Text: KVEL 231253Z AUTO 29003KT 10SM CLR 03/M01 A3024 RMK AO2 SLP227 T00281006
Loading
Personal Weather Stations






























Interactive Weather Map
Tropical Storm Tracking
New forecast layout! Learn more

10-Day Weather Forecast

Advertisements
Track Severe Weather on mobile